createdAt,value
2023-01-28T00:01:29.300Z,100.00
2023-01-28T00:03:56.580Z,100.00
2023-01-28T00:06:25.551Z,100.00
2023-01-28T00:08:52.796Z,100.00
2023-01-28T00:11:22.380Z,100.00
2023-01-28T00:13:53.561Z,100.00
2023-01-28T00:16:24.506Z,100.00
2023-01-28T00:18:51.793Z,100.00
2023-01-28T00:21:19.056Z,100.00
2023-01-28T00:23:54.203Z,100.00
2023-01-28T00:26:22.578Z,100.00
2023-01-28T00:28:49.876Z,100.00
2023-01-28T00:31:19.779Z,100.00
2023-01-28T00:33:48.406Z,100.00
2023-01-28T00:36:16.536Z,100.00
2023-01-28T00:38:43.977Z,100.00
2023-01-28T00:41:15.973Z,100.00
2023-01-28T00:43:45.179Z,100.00
2023-01-28T00:46:14.253Z,100.00
2023-01-28T00:48:43.031Z,100.00
2023-01-28T00:51:11.561Z,100.00
2023-01-28T00:53:39.810Z,100.00
2023-01-28T00:56:08.305Z,100.00
2023-01-28T00:58:35.956Z,100.00
2023-01-28T01:01:14.783Z,100.00
2023-01-28T01:03:42.126Z,100.00
2023-01-28T01:06:10.528Z,100.00
2023-01-28T01:08:40.219Z,100.00
2023-01-28T01:11:11.852Z,100.00
2023-01-28T01:13:39.169Z,100.00
2023-01-28T01:16:09.256Z,100.00
2023-01-28T01:18:37.965Z,100.00
2023-01-28T01:21:09.398Z,100.00
2023-01-28T01:23:36.782Z,100.00
2023-01-28T01:26:05.347Z,100.00
2023-01-28T01:28:32.932Z,100.00
2023-01-28T01:31:01.934Z,100.00
2023-01-28T01:33:30.242Z,100.00
2023-01-28T01:35:58.325Z,100.00
2023-01-28T01:38:25.840Z,100.00
2023-01-28T01:40:53.098Z,100.00
2023-01-28T01:43:22.307Z,100.00
2023-01-28T01:45:59.561Z,100.00
2023-01-28T01:48:33.599Z,100.00
2023-01-28T01:51:09.077Z,100.00
2023-01-28T01:53:38.755Z,100.00
2023-01-28T01:56:07.977Z,100.00
2023-01-28T01:58:38.111Z,100.00
2023-01-28T02:01:05.946Z,100.00
2023-01-28T02:03:52.355Z,100.00
2023-01-28T02:06:19.939Z,100.00
2023-01-28T02:08:47.176Z,100.00
2023-01-28T02:11:15.522Z,100.00
2023-01-28T02:13:45.223Z,100.00
2023-01-28T02:16:13.346Z,100.00
2023-01-28T02:18:40.614Z,100.00
2023-01-28T02:21:42.528Z,100.00
2023-01-28T02:24:18.862Z,100.00
2023-01-28T02:27:15.633Z,100.00
2023-01-28T02:29:50.466Z,100.00
2023-01-28T02:32:22.609Z,100.00
2023-01-28T02:35:09.604Z,100.00
2023-01-28T02:38:04.020Z,100.00
2023-01-28T02:40:55.905Z,100.00
2023-01-28T02:43:42.151Z,100.00
2023-01-28T02:46:40.189Z,100.00
2023-01-28T02:49:21.638Z,100.00
2023-01-28T02:51:59.687Z,100.00
2023-01-28T02:54:48.256Z,100.00
2023-01-28T02:57:29.098Z,100.00
2023-01-28T03:00:11.003Z,100.00
2023-01-28T03:03:09.869Z,100.00
2023-01-28T03:05:41.231Z,100.00
2023-01-28T03:08:28.128Z,100.00
2023-01-28T03:11:16.427Z,100.00
2023-01-28T03:14:04.147Z,100.00
2023-01-28T03:16:52.067Z,100.00
2023-01-28T03:19:37.818Z,100.00
2023-01-28T03:22:24.065Z,100.00
2023-01-28T03:25:12.682Z,100.00
2023-01-28T03:28:13.488Z,100.00
2023-01-28T03:31:17.102Z,100.00
2023-01-28T03:34:03.907Z,100.00
2023-01-28T03:36:50.594Z,100.00
2023-01-28T03:39:29.405Z,100.00
2023-01-28T03:42:03.038Z,100.00
2023-01-28T03:44:49.102Z,100.00
2023-01-28T03:47:16.568Z,100.00
2023-01-28T03:49:50.686Z,100.00
2023-01-28T03:52:19.993Z,100.00
2023-01-28T03:54:50.380Z,100.00
2023-01-28T03:57:19.069Z,100.00
2023-01-28T03:59:46.435Z,100.00
2023-01-28T04:02:14.246Z,100.00
2023-01-28T04:04:42.397Z,100.00
2023-01-28T04:07:11.304Z,100.00
2023-01-28T04:09:38.979Z,100.00
2023-01-28T04:12:06.415Z,100.00
2023-01-28T04:14:34.018Z,100.00
2023-01-28T04:17:01.301Z,100.00
2023-01-28T04:19:28.977Z,100.00
2023-01-28T04:21:56.737Z,100.00
2023-01-28T04:24:24.501Z,100.00
2023-01-28T04:26:51.826Z,100.00
2023-01-28T04:29:19.209Z,100.00
2023-01-28T04:31:46.516Z,100.00
2023-01-28T04:34:13.778Z,100.00
2023-01-28T04:36:40.948Z,100.00
2023-01-28T04:39:08.447Z,100.00
2023-01-28T04:41:35.717Z,100.00
2023-01-28T04:44:03.144Z,100.00
2023-01-28T04:46:30.349Z,100.00
2023-01-28T04:48:57.592Z,100.00
2023-01-28T04:51:24.740Z,100.00
2023-01-28T04:53:51.991Z,100.00
2023-01-28T04:56:19.200Z,100.00
2023-01-28T04:58:46.366Z,100.00
2023-01-28T05:01:13.629Z,100.00
2023-01-28T05:03:40.908Z,100.00
2023-01-28T05:06:08.940Z,100.00
2023-01-28T05:08:36.372Z,100.00
2023-01-28T05:11:03.630Z,100.00
2023-01-28T05:13:31.047Z,100.00
2023-01-28T05:15:58.243Z,100.00
2023-01-28T05:18:25.723Z,100.00
2023-01-28T05:20:52.973Z,100.00
2023-01-28T05:23:20.279Z,100.00
2023-01-28T05:25:47.504Z,100.00
2023-01-28T05:28:15.312Z,100.00
2023-01-28T05:30:42.792Z,100.00
2023-01-28T05:33:10.065Z,100.00
2023-01-28T05:35:37.377Z,100.00
2023-01-28T05:38:04.846Z,100.00
2023-01-28T05:40:32.296Z,100.00
2023-01-28T05:42:59.498Z,100.00
2023-01-28T05:45:26.798Z,100.00
2023-01-28T05:47:54.116Z,100.00
2023-01-28T05:50:21.572Z,100.00
2023-01-28T05:52:48.772Z,100.00
2023-01-28T05:55:16.075Z,100.00
2023-01-28T05:57:44.555Z,100.00
2023-01-28T06:00:12.513Z,100.00
2023-01-28T06:02:40.299Z,100.00
2023-01-28T06:05:08.075Z,100.00
2023-01-28T06:07:35.401Z,100.00
2023-01-28T06:10:02.735Z,100.00
2023-01-28T06:12:30.040Z,100.00
2023-01-28T06:14:57.322Z,100.00
2023-01-28T06:17:24.752Z,100.00
2023-01-28T06:19:52.003Z,100.00
2023-01-28T06:22:19.207Z,100.00
2023-01-28T06:24:46.484Z,100.00
2023-01-28T06:27:13.737Z,100.00
2023-01-28T06:29:45.183Z,100.00
2023-01-28T06:32:12.906Z,100.00
2023-01-28T06:34:40.357Z,100.00
2023-01-28T06:37:07.629Z,100.00
2023-01-28T06:39:34.951Z,100.00
2023-01-28T06:42:02.164Z,100.00
2023-01-28T06:44:29.412Z,100.00
2023-01-28T06:46:56.638Z,100.00
2023-01-28T06:49:23.905Z,100.00
2023-01-28T06:51:51.125Z,100.00
2023-01-28T06:54:18.349Z,100.00
2023-01-28T06:56:45.611Z,100.00
2023-01-28T06:59:13.017Z,100.00
2023-01-28T07:01:40.335Z,100.00
2023-01-28T07:04:11.978Z,100.00
2023-01-28T07:06:39.204Z,100.00
2023-01-28T07:09:06.494Z,100.00
2023-01-28T07:11:33.682Z,100.00
2023-01-28T07:14:01.246Z,100.00
2023-01-28T07:16:28.476Z,100.00
2023-01-28T07:18:55.747Z,100.00
2023-01-28T07:21:23.134Z,100.00
2023-01-28T07:23:51.115Z,100.00
2023-01-28T07:26:20.051Z,100.00
2023-01-28T07:28:47.268Z,100.00
2023-01-28T07:31:14.648Z,100.00
2023-01-28T07:33:41.928Z,100.00
2023-01-28T07:36:09.395Z,100.00
2023-01-28T07:38:36.654Z,100.00
2023-01-28T07:41:03.881Z,100.00
2023-01-28T07:43:31.871Z,100.00
2023-01-28T07:46:01.980Z,99.81
2023-01-28T07:48:29.299Z,100.00
2023-01-28T07:50:59.962Z,100.00
2023-01-28T07:53:27.423Z,99.84
2023-01-28T07:56:02.634Z,100.00
2023-01-28T07:58:29.872Z,100.00
2023-01-28T08:00:59.203Z,100.00
2023-01-28T08:03:26.971Z,100.00
2023-01-28T08:05:55.923Z,100.00
2023-01-28T08:08:24.406Z,100.00
2023-01-28T08:10:51.965Z,98.39
2023-01-28T08:13:19.841Z,98.27
2023-01-28T08:15:47.684Z,98.57
2023-01-28T08:18:16.898Z,98.68
2023-01-28T08:20:46.361Z,97.80
2023-01-28T08:23:18.432Z,98.02
2023-01-28T08:25:46.631Z,96.86
2023-01-28T08:28:14.744Z,99.34
2023-01-28T08:30:42.472Z,97.17
2023-01-28T08:33:11.735Z,97.12
2023-01-28T08:35:39.056Z,98.51
2023-01-28T08:38:07.018Z,97.23
2023-01-28T08:40:34.746Z,97.25
2023-01-28T08:43:02.472Z,96.47
2023-01-28T08:45:30.505Z,96.86
2023-01-28T08:48:05.186Z,96.88
2023-01-28T08:50:35.172Z,95.17
2023-01-28T08:53:07.610Z,94.81
2023-01-28T08:55:35.419Z,95.23
2023-01-28T08:58:04.283Z,95.71
2023-01-28T09:00:31.856Z,96.57
2023-01-28T09:02:59.069Z,96.31
2023-01-28T09:05:26.497Z,92.50
2023-01-28T09:07:53.708Z,93.38
2023-01-28T09:10:21.031Z,92.23
2023-01-28T09:12:50.999Z,93.41
2023-01-28T09:15:18.490Z,93.45
2023-01-28T09:17:45.733Z,93.69
2023-01-28T09:20:14.336Z,98.74
2023-01-28T09:22:41.856Z,100.00
2023-01-28T09:25:09.391Z,100.00
2023-01-28T09:27:36.596Z,94.74
2023-01-28T09:30:04.028Z,90.00
2023-01-28T09:32:31.367Z,89.60
2023-01-28T09:34:58.596Z,91.66
2023-01-28T09:37:25.784Z,93.73
2023-01-28T09:39:53.166Z,95.88
2023-01-28T09:42:49.336Z,96.41
2023-01-28T09:45:26.823Z,92.84
2023-01-28T09:47:56.745Z,92.33
2023-01-28T09:50:38.766Z,97.53
2023-01-28T09:53:28.564Z,92.13
2023-01-28T09:55:57.292Z,90.24
2023-01-28T09:58:24.764Z,87.12
2023-01-28T10:01:31.801Z,87.08
2023-01-28T10:04:23.942Z,86.65
2023-01-28T10:07:11.073Z,85.95
2023-01-28T10:09:47.517Z,88.29
2023-01-28T10:12:46.168Z,89.70
2023-01-28T10:15:41.550Z,90.88
2023-01-28T10:18:17.584Z,98.47
2023-01-28T10:20:51.332Z,95.25
2023-01-28T10:23:27.236Z,89.17
2023-01-28T10:25:56.131Z,88.83
2023-01-28T10:28:28.643Z,91.86
2023-01-28T10:30:56.285Z,89.51
2023-01-28T10:33:29.396Z,100.00
2023-01-28T10:35:57.947Z,99.23
2023-01-28T10:38:27.016Z,88.58
2023-01-28T10:40:58.598Z,93.58
2023-01-28T10:43:26.952Z,90.07
2023-01-28T10:46:14.781Z,88.19
2023-01-28T10:49:04.365Z,93.60
2023-01-28T10:51:33.393Z,90.43
2023-01-28T10:54:01.198Z,87.56
2023-01-28T10:56:31.330Z,87.02
2023-01-28T10:59:01.632Z,91.70
2023-01-28T11:01:49.498Z,85.89
2023-01-28T11:04:29.650Z,88.94
2023-01-28T11:07:03.100Z,87.14
2023-01-28T11:09:32.506Z,90.28
2023-01-28T11:12:10.329Z,86.91
2023-01-28T11:14:37.676Z,91.30
2023-01-28T11:17:04.966Z,87.95
2023-01-28T11:19:37.144Z,87.86
2023-01-28T11:22:04.542Z,86.01
2023-01-28T11:24:33.312Z,88.57
2023-01-28T11:27:11.556Z,87.91
2023-01-28T11:29:40.113Z,92.12
2023-01-28T11:32:18.159Z,95.59
2023-01-28T11:34:55.890Z,98.25
2023-01-28T11:37:24.334Z,96.96
2023-01-28T11:40:10.583Z,89.94
2023-01-28T11:42:37.835Z,87.69
2023-01-28T11:45:15.970Z,90.03
2023-01-28T11:47:57.270Z,91.45
2023-01-28T11:50:40.910Z,100.00
2023-01-28T11:53:36.947Z,100.00
2023-01-28T11:56:20.297Z,100.00
2023-01-28T11:59:24.062Z,100.00
2023-01-28T12:02:16.972Z,100.00
2023-01-28T12:05:02.549Z,98.83
2023-01-28T12:07:47.604Z,90.47
2023-01-28T12:10:27.144Z,87.97
2023-01-28T12:12:57.145Z,89.96
2023-01-28T12:15:47.344Z,94.42
2023-01-28T12:18:17.661Z,93.65
2023-01-28T12:21:10.920Z,93.97
2023-01-28T12:23:47.180Z,93.65
2023-01-28T12:26:51.028Z,97.48
2023-01-28T12:29:47.519Z,94.17
2023-01-28T12:32:39.156Z,96.46
2023-01-28T12:35:17.879Z,97.21
2023-01-28T12:38:08.517Z,99.33
2023-01-28T12:40:53.975Z,99.86
2023-01-28T12:43:33.264Z,99.69
2023-01-28T12:46:04.546Z,100.00
2023-01-28T12:48:43.286Z,100.00
2023-01-28T12:51:23.839Z,100.00
2023-01-28T12:53:55.989Z,100.00
2023-01-28T12:56:43.616Z,100.00
2023-01-28T12:59:24.754Z,92.87
2023-01-28T13:02:13.398Z,94.63
2023-01-28T13:05:01.807Z,91.41
2023-01-28T13:07:58.875Z,89.24
2023-01-28T13:10:30.491Z,91.83
2023-01-28T13:12:59.076Z,92.81
2023-01-28T13:15:26.479Z,90.90
2023-01-28T13:18:00.479Z,94.64
2023-01-28T13:20:39.636Z,97.90
2023-01-28T13:23:41.776Z,95.42
2023-01-28T13:26:19.290Z,98.18
2023-01-28T13:28:51.022Z,97.28
2023-01-28T13:31:20.732Z,91.42
2023-01-28T13:34:08.824Z,93.30
2023-01-28T13:36:44.416Z,92.56
2023-01-28T13:39:15.896Z,89.86
2023-01-28T13:41:54.794Z,90.35
2023-01-28T13:44:30.141Z,97.12
2023-01-28T13:47:09.283Z,92.70
2023-01-28T13:49:42.737Z,99.99
2023-01-28T13:52:14.206Z,100.00
2023-01-28T13:55:06.013Z,97.36
2023-01-28T13:58:06.484Z,91.65
2023-01-28T14:00:38.761Z,93.21
2023-01-28T14:03:28.925Z,90.14
2023-01-28T14:06:13.718Z,94.50
2023-01-28T14:09:06.417Z,90.24
2023-01-28T14:11:50.496Z,100.00
2023-01-28T14:14:39.222Z,100.00
2023-01-28T14:17:31.085Z,90.64
2023-01-28T14:19:59.336Z,87.11
2023-01-28T14:22:27.169Z,84.49
2023-01-28T14:24:54.940Z,88.18
2023-01-28T14:27:32.875Z,99.99
2023-01-28T14:30:36.510Z,100.00
2023-01-28T14:33:03.771Z,96.89
2023-01-28T14:35:33.088Z,100.00
2023-01-28T14:38:00.322Z,100.00
2023-01-28T14:40:29.700Z,93.84
2023-01-28T14:42:56.993Z,100.00
2023-01-28T14:45:49.007Z,100.00
2023-01-28T14:48:38.276Z,100.00
2023-01-28T14:51:23.400Z,91.45
2023-01-28T14:54:15.809Z,89.83
2023-01-28T14:57:05.263Z,88.93
2023-01-28T14:59:43.791Z,98.54
2023-01-28T15:02:18.837Z,100.00
2023-01-28T15:04:46.214Z,98.26
2023-01-28T15:07:22.128Z,96.64
2023-01-28T15:10:00.597Z,97.72
2023-01-28T15:12:28.337Z,99.26
2023-01-28T15:14:55.596Z,100.00
2023-01-28T15:17:26.905Z,96.76
2023-01-28T15:19:56.570Z,92.48
2023-01-28T15:22:27.816Z,89.59
2023-01-28T15:24:55.534Z,94.10
2023-01-28T15:27:29.353Z,94.37
2023-01-28T15:29:58.492Z,94.22
2023-01-28T15:32:34.874Z,94.42
2023-01-28T15:35:02.399Z,100.00
2023-01-28T15:37:29.712Z,100.00
2023-01-28T15:40:09.024Z,100.00
2023-01-28T15:42:36.223Z,100.00
2023-01-28T15:45:04.549Z,94.95
2023-01-28T15:47:33.875Z,100.00
2023-01-28T15:50:05.329Z,98.38
2023-01-28T15:52:40.880Z,91.88
2023-01-28T15:55:21.600Z,90.92
2023-01-28T15:57:56.684Z,89.27
2023-01-28T16:00:25.566Z,94.79
2023-01-28T16:02:54.634Z,95.46
2023-01-28T16:05:32.393Z,99.09
2023-01-28T16:08:03.295Z,98.26
2023-01-28T16:10:31.156Z,93.69
2023-01-28T16:13:24.622Z,100.00
2023-01-28T16:15:54.230Z,100.00
2023-01-28T16:18:35.201Z,100.00
2023-01-28T16:21:02.563Z,100.00
2023-01-28T16:23:29.834Z,100.00
2023-01-28T16:26:05.269Z,100.00
2023-01-28T16:28:32.753Z,95.30
2023-01-28T16:31:00.935Z,94.68
2023-01-28T16:33:28.546Z,94.91
2023-01-28T16:36:08.031Z,100.00
2023-01-28T16:38:35.966Z,100.00
2023-01-28T16:41:03.396Z,100.00
2023-01-28T16:43:30.820Z,94.50
2023-01-28T16:45:58.101Z,94.34
2023-01-28T16:48:25.353Z,93.28
2023-01-28T16:50:52.638Z,100.00
2023-01-28T16:53:23.198Z,100.00
2023-01-28T16:55:51.457Z,100.00
2023-01-28T16:58:23.160Z,100.00
2023-01-28T17:00:50.536Z,99.98
2023-01-28T17:03:17.861Z,98.09
2023-01-28T17:05:45.357Z,100.00
2023-01-28T17:08:12.677Z,100.00
2023-01-28T17:10:39.943Z,100.00
2023-01-28T17:13:07.175Z,100.00
2023-01-28T17:15:36.153Z,100.00
2023-01-28T17:18:03.398Z,100.00
2023-01-28T17:20:30.723Z,100.00
2023-01-28T17:22:58.280Z,100.00
2023-01-28T17:25:25.886Z,98.79
2023-01-28T17:27:53.185Z,100.00
2023-01-28T17:30:20.723Z,98.62
2023-01-28T17:32:47.957Z,95.66
2023-01-28T17:35:15.956Z,94.06
2023-01-28T17:37:43.439Z,97.45
2023-01-28T17:40:12.674Z,95.61
2023-01-28T17:42:39.959Z,100.00
2023-01-28T17:45:07.749Z,95.13
2023-01-28T17:47:35.023Z,99.35
2023-01-28T17:50:03.059Z,100.00
2023-01-28T17:52:30.791Z,99.04
2023-01-28T17:54:58.032Z,100.00
2023-01-28T17:57:25.562Z,100.00
2023-01-28T17:59:52.766Z,98.27
2023-01-28T18:02:20.041Z,100.00
2023-01-28T18:04:47.416Z,100.00
2023-01-28T18:07:14.717Z,100.00
2023-01-28T18:09:43.452Z,100.00
2023-01-28T18:12:13.061Z,100.00
2023-01-28T18:14:41.081Z,99.93
2023-01-28T18:17:08.692Z,100.00
2023-01-28T18:19:35.946Z,100.00
2023-01-28T18:22:03.414Z,100.00
2023-01-28T18:24:31.146Z,100.00
2023-01-28T18:27:00.046Z,100.00
2023-01-28T18:29:31.733Z,100.00
2023-01-28T18:31:59.879Z,100.00
2023-01-28T18:34:28.486Z,100.00
2023-01-28T18:36:57.228Z,100.00
2023-01-28T18:39:30.319Z,100.00
2023-01-28T18:41:58.692Z,100.00
2023-01-28T18:44:27.404Z,100.00
2023-01-28T18:46:54.817Z,100.00
2023-01-28T18:49:22.205Z,100.00
2023-01-28T18:51:49.496Z,100.00
2023-01-28T18:54:16.785Z,100.00
2023-01-28T18:56:44.138Z,100.00
2023-01-28T18:59:13.119Z,100.00
2023-01-28T19:01:42.510Z,100.00
2023-01-28T19:04:10.753Z,100.00
2023-01-28T19:06:38.071Z,100.00
2023-01-28T19:09:07.031Z,100.00
2023-01-28T19:11:35.053Z,100.00
2023-01-28T19:14:02.776Z,100.00
2023-01-28T19:16:30.191Z,100.00
2023-01-28T19:18:59.713Z,100.00
2023-01-28T19:21:28.626Z,100.00
2023-01-28T19:23:58.453Z,100.00
2023-01-28T19:26:26.786Z,100.00
2023-01-28T19:28:54.563Z,100.00
2023-01-28T19:31:23.282Z,100.00
2023-01-28T19:33:55.278Z,100.00
2023-01-28T19:36:23.761Z,100.00
2023-01-28T19:38:50.997Z,100.00
2023-01-28T19:41:18.447Z,100.00
2023-01-28T19:43:46.029Z,100.00
2023-01-28T19:46:16.341Z,100.00
2023-01-28T19:48:44.082Z,100.00
2023-01-28T19:51:12.935Z,100.00
2023-01-28T19:53:41.295Z,100.00
2023-01-28T19:56:13.728Z,100.00
2023-01-28T19:58:42.771Z,100.00
2023-01-28T20:01:11.687Z,100.00
2023-01-28T20:03:39.057Z,100.00
2023-01-28T20:06:08.961Z,100.00
2023-01-28T20:08:36.194Z,100.00
2023-01-28T20:11:08.672Z,100.00
2023-01-28T20:13:38.420Z,100.00
2023-01-28T20:16:08.316Z,100.00
2023-01-28T20:18:35.801Z,100.00
2023-01-28T20:21:05.359Z,100.00
2023-01-28T20:23:33.037Z,100.00
2023-01-28T20:26:03.601Z,100.00
2023-01-28T20:28:30.970Z,100.00
2023-01-28T20:30:59.582Z,100.00
2023-01-28T20:33:26.820Z,100.00
2023-01-28T20:36:01.611Z,100.00
2023-01-28T20:38:29.160Z,100.00
2023-01-28T20:40:56.655Z,100.00
2023-01-28T20:43:23.860Z,100.00
2023-01-28T20:45:51.116Z,100.00
2023-01-28T20:48:18.379Z,100.00
2023-01-28T20:50:45.631Z,100.00
2023-01-28T20:53:12.906Z,100.00
2023-01-28T20:55:40.107Z,100.00
2023-01-28T20:58:07.341Z,100.00
2023-01-28T21:00:34.635Z,100.00
2023-01-28T21:03:01.957Z,100.00
2023-01-28T21:05:29.235Z,100.00
2023-01-28T21:07:56.574Z,100.00
2023-01-28T21:10:23.980Z,100.00
2023-01-28T21:12:51.270Z,100.00
2023-01-28T21:15:18.561Z,100.00
2023-01-28T21:17:45.946Z,100.00
2023-01-28T21:20:13.691Z,100.00
2023-01-28T21:22:41.093Z,100.00
2023-01-28T21:25:08.970Z,100.00
2023-01-28T21:27:36.452Z,100.00
2023-01-28T21:30:03.814Z,100.00
2023-01-28T21:32:31.087Z,100.00
2023-01-28T21:34:58.571Z,100.00
2023-01-28T21:37:26.352Z,100.00
2023-01-28T21:39:53.562Z,100.00
2023-01-28T21:42:20.911Z,100.00
2023-01-28T21:44:48.540Z,100.00
2023-01-28T21:47:15.764Z,100.00
2023-01-28T21:49:43.078Z,100.00
2023-01-28T21:52:11.883Z,100.00
2023-01-28T21:54:39.118Z,100.00
2023-01-28T21:57:06.320Z,100.00
2023-01-28T21:59:35.875Z,100.00
2023-01-28T22:02:06.328Z,100.00
2023-01-28T22:04:35.905Z,100.00
2023-01-28T22:07:05.287Z,100.00
2023-01-28T22:09:33.809Z,100.00
2023-01-28T22:12:03.550Z,100.00
2023-01-28T22:14:30.838Z,100.00
2023-01-28T22:16:58.142Z,100.00
2023-01-28T22:19:25.619Z,100.00
2023-01-28T22:21:52.843Z,100.00
2023-01-28T22:24:24.887Z,100.00
2023-01-28T22:26:53.455Z,100.00
2023-01-28T22:29:22.290Z,100.00
2023-01-28T22:31:51.258Z,100.00
2023-01-28T22:34:19.171Z,100.00
2023-01-28T22:36:46.989Z,100.00
2023-01-28T22:39:15.761Z,100.00
2023-01-28T22:41:43.943Z,100.00
2023-01-28T22:44:11.182Z,100.00
2023-01-28T22:46:38.620Z,100.00
2023-01-28T22:49:05.915Z,100.00
2023-01-28T22:51:34.850Z,100.00
2023-01-28T22:54:02.510Z,100.00
2023-01-28T22:56:30.766Z,100.00
2023-01-28T22:59:00.430Z,100.00
2023-01-28T23:01:28.191Z,100.00
2023-01-28T23:03:56.253Z,100.00
2023-01-28T23:06:25.464Z,100.00
2023-01-28T23:08:52.789Z,100.00
2023-01-28T23:11:27.150Z,100.00
2023-01-28T23:14:14.779Z,100.00
2023-01-28T23:17:01.222Z,100.00
2023-01-28T23:19:47.411Z,100.00
2023-01-28T23:22:42.402Z,100.00
2023-01-28T23:25:10.153Z,100.00
2023-01-28T23:27:37.643Z,100.00
2023-01-28T23:30:10.230Z,100.00
2023-01-28T23:32:40.319Z,100.00
2023-01-28T23:35:09.175Z,100.00
2023-01-28T23:37:36.499Z,100.00
2023-01-28T23:40:04.774Z,100.00
2023-01-28T23:42:32.006Z,100.00
2023-01-28T23:44:59.315Z,100.00
2023-01-28T23:47:26.595Z,100.00
2023-01-28T23:49:53.825Z,100.00
2023-01-28T23:52:21.288Z,100.00
2023-01-28T23:54:48.535Z,100.00
2023-01-28T23:57:16.790Z,100.00
2023-01-28T23:59:44.028Z,100.00
